sensor_id;sensor_type;location;lat;lon;timestamp;pressure;altitude;pressure_sealevel;temperature;humidity
3122;BME280;1571;52.524;14.104;2023-02-04T00:00:27;101489.63;;;2.46;96.37
3122;BME280;1571;52.524;14.104;2023-02-04T00:02:57;101490.63;;;2.39;96.96
3122;BME280;1571;52.524;14.104;2023-02-04T00:05:25;101526.47;;;2.34;97.46
3122;BME280;1571;52.524;14.104;2023-02-04T00:07:54;101531.56;;;2.43;97.17
3122;BME280;1571;52.524;14.104;2023-02-04T00:10:22;101534.13;;;2.47;97.07
3122;BME280;1571;52.524;14.104;2023-02-04T00:12:50;101546.44;;;2.42;96.33
3122;BME280;1571;52.524;14.104;2023-02-04T00:15:19;101557.75;;;2.46;96.17
3122;BME280;1571;52.524;14.104;2023-02-04T00:17:48;101566.50;;;2.45;95.70
3122;BME280;1571;52.524;14.104;2023-02-04T00:20:16;101581.38;;;2.43;94.98
3122;BME280;1571;52.524;14.104;2023-02-04T00:22:45;101588.31;;;2.47;94.82
3122;BME280;1571;52.524;14.104;2023-02-04T00:25:14;101599.78;;;2.40;94.80
3122;BME280;1571;52.524;14.104;2023-02-04T00:27:42;101612.03;;;2.38;94.83
3122;BME280;1571;52.524;14.104;2023-02-04T00:30:12;101630.38;;;2.38;95.06
3122;BME280;1571;52.524;14.104;2023-02-04T00:32:40;101611.97;;;2.41;94.75
3122;BME280;1571;52.524;14.104;2023-02-04T00:35:10;101616.44;;;2.34;94.42
3122;BME280;1571;52.524;14.104;2023-02-04T00:37:38;101650.56;;;2.29;94.32
3122;BME280;1571;52.524;14.104;2023-02-04T00:40:07;101647.06;;;2.31;94.49
3122;BME280;1571;52.524;14.104;2023-02-04T00:42:38;101676.09;;;2.17;95.21
3122;BME280;1571;52.524;14.104;2023-02-04T00:45:07;101682.25;;;2.14;95.64
3122;BME280;1571;52.524;14.104;2023-02-04T00:47:35;101704.84;;;2.21;96.25
3122;BME280;1571;52.524;14.104;2023-02-04T00:50:03;101695.34;;;2.11;96.86
3122;BME280;1571;52.524;14.104;2023-02-04T00:52:33;101714.53;;;2.16;97.63
3122;BME280;1571;52.524;14.104;2023-02-04T00:55:01;101731.22;;;2.06;97.84
3122;BME280;1571;52.524;14.104;2023-02-04T00:57:30;101737.38;;;2.03;98.02
3122;BME280;1571;52.524;14.104;2023-02-04T00:59:58;101757.38;;;2.09;98.24
3122;BME280;1571;52.524;14.104;2023-02-04T01:02:26;101774.09;;;1.97;98.16
3122;BME280;1571;52.524;14.104;2023-02-04T01:04:54;101784.56;;;1.97;97.97
3122;BME280;1571;52.524;14.104;2023-02-04T01:07:23;101795.09;;;1.93;96.88
3122;BME280;1571;52.524;14.104;2023-02-04T01:09:53;101798.69;;;1.81;95.97
3122;BME280;1571;52.524;14.104;2023-02-04T01:12:21;101815.22;;;1.84;94.48
3122;BME280;1571;52.524;14.104;2023-02-04T01:14:52;101831.09;;;1.69;94.02
3122;BME280;1571;52.524;14.104;2023-02-04T01:17:20;101831.06;;;1.72;93.25
3122;BME280;1571;52.524;14.104;2023-02-04T01:19:48;101839.81;;;1.68;93.00
3122;BME280;1571;52.524;14.104;2023-02-04T01:22:16;101851.25;;;1.58;92.75
3122;BME280;1571;52.524;14.104;2023-02-04T01:24:44;101852.19;;;1.48;92.89
3122;BME280;1571;52.524;14.104;2023-02-04T01:27:32;101867.00;;;1.53;92.80
3122;BME280;1571;52.524;14.104;2023-02-04T01:30:03;101869.63;;;1.50;93.31
3122;BME280;1571;52.524;14.104;2023-02-04T01:32:33;101880.16;;;1.39;93.57
3122;BME280;1571;52.524;14.104;2023-02-04T01:35:01;101885.41;;;1.36;94.12
3122;BME280;1571;52.524;14.104;2023-02-04T01:37:29;101903.72;;;1.35;94.29
3122;BME280;1571;52.524;14.104;2023-02-04T01:39:58;101917.66;;;1.40;94.79
3122;BME280;1571;52.524;14.104;2023-02-04T01:42:26;101932.56;;;1.29;95.36
3122;BME280;1571;52.524;14.104;2023-02-04T01:44:55;101939.50;;;1.30;95.60
3122;BME280;1571;52.524;14.104;2023-02-04T01:47:23;101943.03;;;1.21;95.86
3122;BME280;1571;52.524;14.104;2023-02-04T01:49:53;101949.13;;;1.23;96.32
3122;BME280;1571;52.524;14.104;2023-02-04T01:52:23;101958.81;;;1.09;96.78
3122;BME280;1571;52.524;14.104;2023-02-04T01:54:51;101967.50;;;1.09;96.78
3122;BME280;1571;52.524;14.104;2023-02-04T01:57:20;101969.28;;;1.02;97.08
3122;BME280;1571;52.524;14.104;2023-02-04T01:59:49;101985.00;;;0.93;97.26
3122;BME280;1571;52.524;14.104;2023-02-04T02:02:39;101997.19;;;0.94;97.25
3122;BME280;1571;52.524;14.104;2023-02-04T02:05:10;102000.66;;;0.98;97.38
3122;BME280;1571;52.524;14.104;2023-02-04T02:07:39;102018.97;;;0.86;97.23
3122;BME280;1571;52.524;14.104;2023-02-04T02:10:10;102029.44;;;0.87;97.44
3122;BME280;1571;52.524;14.104;2023-02-04T02:12:40;102044.25;;;0.94;97.34
3122;BME280;1571;52.524;14.104;2023-02-04T02:15:09;102045.13;;;0.81;97.51
3122;BME280;1571;52.524;14.104;2023-02-04T02:17:40;102046.00;;;0.92;97.32
3122;BME280;1571;52.524;14.104;2023-02-04T02:20:10;102056.50;;;0.77;97.16
3122;BME280;1571;52.524;14.104;2023-02-04T02:22:46;102058.22;;;0.78;97.02
3122;BME280;1571;52.524;14.104;2023-02-04T02:25:20;102075.66;;;0.82;97.02
3122;BME280;1571;52.524;14.104;2023-02-04T02:27:48;102072.19;;;0.68;97.25
3122;BME280;1571;52.524;14.104;2023-02-04T02:30:17;102082.63;;;0.63;97.44
3122;BME280;1571;52.524;14.104;2023-02-04T02:32:46;102084.34;;;0.72;97.61
3122;BME280;1571;52.524;14.104;2023-02-04T02:35:16;102093.94;;;0.67;97.58
3122;BME280;1571;52.524;14.104;2023-02-04T02:37:45;102101.78;;;0.53;97.74
3122;BME280;1571;52.524;14.104;2023-02-04T02:40:13;102101.78;;;0.60;98.02
3122;BME280;1571;52.524;14.104;2023-02-04T02:42:46;102118.34;;;0.59;98.48
3122;BME280;1571;52.524;14.104;2023-02-04T02:45:21;102130.53;;;0.51;98.61
3122;BME280;1571;52.524;14.104;2023-02-04T02:47:50;102129.69;;;0.68;98.71
3122;BME280;1571;52.524;14.104;2023-02-04T02:50:20;102129.66;;;0.58;98.72
3122;BME280;1571;52.524;14.104;2023-02-04T02:52:51;102143.63;;;0.64;98.80
3122;BME280;1571;52.524;14.104;2023-02-04T02:55:22;102153.19;;;0.58;99.09
3122;BME280;1571;52.524;14.104;2023-02-04T02:57:53;102160.16;;;0.58;98.97
3122;BME280;1571;52.524;14.104;2023-02-04T03:00:23;102167.97;;;0.53;99.37
3122;BME280;1571;52.524;14.104;2023-02-04T03:02:57;102182.81;;;0.62;99.42
3122;BME280;1571;52.524;14.104;2023-02-04T03:05:29;102183.66;;;0.53;99.52
3122;BME280;1571;52.524;14.104;2023-02-04T03:08:00;102195.03;;;0.61;99.64
3122;BME280;1571;52.524;14.104;2023-02-04T03:10:28;102201.09;;;0.57;99.50
3122;BME280;1571;52.524;14.104;2023-02-04T03:12:59;102206.28;;;0.39;100.00
3122;BME280;1571;52.524;14.104;2023-02-04T03:15:29;102218.50;;;0.49;99.98
3122;BME280;1571;52.524;14.104;2023-02-04T03:17:58;102217.63;;;0.47;100.00
3122;BME280;1571;52.524;14.104;2023-02-04T03:20:29;102222.81;;;0.38;100.00
3122;BME280;1571;52.524;14.104;2023-02-04T03:22:58;102229.81;;;0.47;100.00
3122;BME280;1571;52.524;14.104;2023-02-04T03:25:27;102230.72;;;0.59;100.00
3122;BME280;1571;52.524;14.104;2023-02-04T03:27:58;102243.75;;;0.46;100.00
3122;BME280;1571;52.524;14.104;2023-02-04T03:30:27;102251.47;;;0.19;100.00
3122;BME280;1571;52.524;14.104;2023-02-04T03:32:56;102252.34;;;0.18;100.00
3122;BME280;1571;52.524;14.104;2023-02-04T03:35:25;102258.53;;;0.39;100.00
3122;BME280;1571;52.524;14.104;2023-02-04T03:37:53;102263.81;;;0.57;100.00
3122;BME280;1571;52.524;14.104;2023-02-04T03:40:21;102273.38;;;0.49;100.00
3122;BME280;1571;52.524;14.104;2023-02-04T03:42:49;102275.13;;;0.50;100.00
3122;BME280;1571;52.524;14.104;2023-02-04T03:45:19;102291.63;;;0.40;100.00
3122;BME280;1571;52.524;14.104;2023-02-04T03:47:49;102302.97;;;0.47;100.00
3122;BME280;1571;52.524;14.104;2023-02-04T03:50:17;102311.69;;;0.44;100.00
3122;BME280;1571;52.524;14.104;2023-02-04T03:52:45;102310.84;;;0.48;100.00
3122;BME280;1571;52.524;14.104;2023-02-04T03:55:15;102309.94;;;0.41;100.00
3122;BME280;1571;52.524;14.104;2023-02-04T03:57:43;102330.81;;;0.37;100.00
3122;BME280;1571;52.524;14.104;2023-02-04T04:00:13;102343.88;;;0.40;100.00
3122;BME280;1571;52.524;14.104;2023-02-04T04:02:43;102340.44;;;0.47;100.00
3122;BME280;1571;52.524;14.104;2023-02-04T04:05:12;102342.19;;;0.48;100.00
3122;BME280;1571;52.524;14.104;2023-02-04T04:07:41;102356.22;;;0.66;99.85
3122;BME280;1571;52.524;14.104;2023-02-04T04:10:09;102370.94;;;0.51;100.00
3122;BME280;1571;52.524;14.104;2023-02-04T04:12:38;102381.44;;;0.57;100.00
3122;BME280;1571;52.524;14.104;2023-02-04T04:15:07;102374.44;;;0.53;99.93
3122;BME280;1571;52.524;14.104;2023-02-04T04:17:35;102380.50;;;0.49;99.75
3122;BME280;1571;52.524;14.104;2023-02-04T04:20:05;102394.50;;;0.60;99.89
3122;BME280;1571;52.524;14.104;2023-02-04T04:22:34;102387.56;;;0.62;99.73
3122;BME280;1571;52.524;14.104;2023-02-04T04:25:02;102404.97;;;0.57;99.70
3122;BME280;1571;52.524;14.104;2023-02-04T04:27:30;102412.81;;;0.59;99.70
3122;BME280;1571;52.524;14.104;2023-02-04T04:29:58;102412.84;;;0.67;99.63
3122;BME280;1571;52.524;14.104;2023-02-04T04:32:27;102421.41;;;0.43;100.00
3122;BME280;1571;52.524;14.104;2023-02-04T04:34:55;102428.41;;;0.47;100.00
3122;BME280;1571;52.524;14.104;2023-02-04T04:37:26;102438.00;;;0.46;100.00
3122;BME280;1571;52.524;14.104;2023-02-04T04:39:54;102445.88;;;0.55;100.00
3122;BME280;1571;52.524;14.104;2023-02-04T04:42:22;102454.59;;;0.54;100.00
3122;BME280;1571;52.524;14.104;2023-02-04T04:44:50;102455.44;;;0.49;100.00
3122;BME280;1571;52.524;14.104;2023-02-04T04:47:18;102457.97;;;0.39;100.00
3122;BME280;1571;52.524;14.104;2023-02-04T04:49:46;102464.97;;;0.44;100.00
3122;BME280;1571;52.524;14.104;2023-02-04T04:52:15;102473.63;;;0.38;100.00
3122;BME280;1571;52.524;14.104;2023-02-04T04:54:44;102487.47;;;0.23;100.00
3122;BME280;1571;52.524;14.104;2023-02-04T04:57:12;102481.50;;;0.41;100.00
3122;BME280;1571;52.524;14.104;2023-02-04T04:59:40;102489.38;;;0.44;100.00
3122;BME280;1571;52.524;14.104;2023-02-04T05:02:08;102503.34;;;0.48;100.00
3122;BME280;1571;52.524;14.104;2023-02-04T05:04:37;102514.69;;;0.51;100.00
3122;BME280;1571;52.524;14.104;2023-02-04T05:07:05;102514.78;;;0.64;100.00
3122;BME280;1571;52.524;14.104;2023-02-04T05:09:33;102520.03;;;0.70;100.00
3122;BME280;1571;52.524;14.104;2023-02-04T05:12:03;102519.97;;;0.60;100.00
3122;BME280;1571;52.524;14.104;2023-02-04T05:14:31;102523.53;;;0.69;100.00
3122;BME280;1571;52.524;14.104;2023-02-04T05:17:00;102527.84;;;0.65;100.00
3122;BME280;1571;52.524;14.104;2023-02-04T05:19:28;102534.91;;;0.72;100.00
3122;BME280;1571;52.524;14.104;2023-02-04T05:21:56;102535.75;;;0.73;100.00
3122;BME280;1571;52.524;14.104;2023-02-04T05:24:27;102559.28;;;0.73;100.00
3122;BME280;1571;52.524;14.104;2023-02-04T05:26:55;102557.53;;;0.72;100.00
3122;BME280;1571;52.524;14.104;2023-02-04T05:29:25;102574.97;;;0.73;100.00
3122;BME280;1571;52.524;14.104;2023-02-04T05:31:53;102576.72;;;0.74;100.00
3122;BME280;1571;52.524;14.104;2023-02-04T05:34:21;102577.53;;;0.70;100.00
3122;BME280;1571;52.524;14.104;2023-02-04T05:36:49;102583.66;;;0.72;100.00
3122;BME280;1571;52.524;14.104;2023-02-04T05:39:18;102589.84;;;0.83;100.00
3122;BME280;1571;52.524;14.104;2023-02-04T05:41:46;102589.78;;;0.71;100.00
3122;BME280;1571;52.524;14.104;2023-02-04T05:44:14;102595.06;;;0.80;100.00
3122;BME280;1571;52.524;14.104;2023-02-04T05:46:43;102599.44;;;0.79;100.00
3122;BME280;1571;52.524;14.104;2023-02-04T05:49:12;102619.47;;;0.79;100.00
3122;BME280;1571;52.524;14.104;2023-02-04T05:51:40;102615.97;;;0.77;100.00
3122;BME280;1571;52.524;14.104;2023-02-04T05:54:08;102617.78;;;0.87;100.00
3122;BME280;1571;52.524;14.104;2023-02-04T05:56:36;102627.31;;;0.77;100.00
3122;BME280;1571;52.524;14.104;2023-02-04T05:59:05;102634.19;;;0.68;100.00
3122;BME280;1571;52.524;14.104;2023-02-04T06:01:33;102643.72;;;0.61;100.00
3122;BME280;1571;52.524;14.104;2023-02-04T06:04:02;102631.53;;;0.65;100.00
3122;BME280;1571;52.524;14.104;2023-02-04T06:06:31;102634.94;;;0.54;100.00
3122;BME280;1571;52.524;14.104;2023-02-04T06:09:00;102654.09;;;0.53;100.00
3122;BME280;1571;52.524;14.104;2023-02-04T06:11:28;102648.13;;;0.70;100.00
3122;BME280;1571;52.524;14.104;2023-02-04T06:13:56;102654.25;;;0.72;100.00
3122;BME280;1571;52.524;14.104;2023-02-04T06:16:25;102670.53;;;0.45;100.00
3122;BME280;1571;52.524;14.104;2023-02-04T06:18:53;102679.25;;;0.44;100.00
3122;BME280;1571;52.524;14.104;2023-02-04T06:21:22;102675.78;;;0.45;100.00
3122;BME280;1571;52.524;14.104;2023-02-04T06:23:51;102686.03;;;0.26;100.00
3122;BME280;1571;52.524;14.104;2023-02-04T06:26:19;102693.06;;;0.32;100.00
3122;BME280;1571;52.524;14.104;2023-02-04T06:28:47;102698.97;;;0.15;100.00
3122;BME280;1571;52.524;14.104;2023-02-04T06:31:15;102701.81;;;0.34;100.00
3122;BME280;1571;52.524;14.104;2023-02-04T06:33:44;102698.25;;;0.29;100.00
3122;BME280;1571;52.524;14.104;2023-02-04T06:36:12;102709.34;;;0.09;100.00
3122;BME280;1571;52.524;14.104;2023-02-04T06:38:42;102721.50;;;0.07;100.00
3122;BME280;1571;52.524;14.104;2023-02-04T06:41:10;102719.81;;;0.12;100.00
3122;BME280;1571;52.524;14.104;2023-02-04T06:43:38;102724.97;;;0.06;100.00
3122;BME280;1571;52.524;14.104;2023-02-04T06:46:06;102725.88;;;0.08;100.00
3122;BME280;1571;52.524;14.104;2023-02-04T06:48:35;102730.34;;;0.17;100.00
3122;BME280;1571;52.524;14.104;2023-02-04T06:51:03;102730.34;;;0.18;100.00
3122;BME280;1571;52.524;14.104;2023-02-04T06:53:31;102735.41;;;0.05;100.00
3122;BME280;1571;52.524;14.104;2023-02-04T06:56:01;102736.41;;;0.14;100.00
3122;BME280;1571;52.524;14.104;2023-02-04T06:58:29;102733.59;;;0.02;100.00
3122;BME280;1571;52.524;14.104;2023-02-04T07:00:58;102731.22;;;0.19;100.00
3122;BME280;1571;52.524;14.104;2023-02-04T07:03:26;102732.66;;;-0.06;100.00
3122;BME280;1571;52.524;14.104;2023-02-04T07:05:54;102728.94;;;-0.21;100.00
3122;BME280;1571;52.524;14.104;2023-02-04T07:08:22;102728.47;;;0.08;100.00
3122;BME280;1571;52.524;14.104;2023-02-04T07:10:51;102733.56;;;-0.03;100.00
3122;BME280;1571;52.524;14.104;2023-02-04T07:13:20;102740.31;;;-0.17;100.00
3122;BME280;1571;52.524;14.104;2023-02-04T07:15:48;102738.75;;;-0.06;100.00
3122;BME280;1571;52.524;14.104;2023-02-04T07:18:18;102738.91;;;0.08;100.00
3122;BME280;1571;52.524;14.104;2023-02-04T07:20:46;102738.97;;;0.11;100.00
3122;BME280;1571;52.524;14.104;2023-02-04T07:23:15;102730.31;;;0.15;100.00
3122;BME280;1571;52.524;14.104;2023-02-04T07:25:43;102734.81;;;0.27;100.00
3122;BME280;1571;52.524;14.104;2023-02-04T07:28:11;102741.13;;;0.46;100.00
3122;BME280;1571;52.524;14.104;2023-02-04T07:30:40;102741.97;;;0.44;100.00
3122;BME280;1571;52.524;14.104;2023-02-04T07:33:09;102755.94;;;0.47;100.00
3122;BME280;1571;52.524;14.104;2023-02-04T07:35:37;102758.41;;;0.35;100.00
3122;BME280;1571;52.524;14.104;2023-02-04T07:38:05;102760.31;;;0.48;100.00
3122;BME280;1571;52.524;14.104;2023-02-04T07:40:34;102758.59;;;0.50;100.00
3122;BME280;1571;52.524;14.104;2023-02-04T07:43:02;102769.75;;;0.35;100.00
3122;BME280;1571;52.524;14.104;2023-02-04T07:45:32;102773.44;;;0.53;100.00
3122;BME280;1571;52.524;14.104;2023-02-04T07:48:02;102777.69;;;0.43;100.00
3122;BME280;1571;52.524;14.104;2023-02-04T07:50:30;102778.00;;;0.71;100.00
3122;BME280;1571;52.524;14.104;2023-02-04T07:52:59;102786.75;;;0.73;100.00
3122;BME280;1571;52.524;14.104;2023-02-04T07:55:27;102791.75;;;0.54;100.00
3122;BME280;1571;52.524;14.104;2023-02-04T07:57:56;102791.91;;;0.67;100.00
3122;BME280;1571;52.524;14.104;2023-02-04T08:00:24;102794.59;;;0.76;100.00
3122;BME280;1571;52.524;14.104;2023-02-04T08:02:52;102807.16;;;1.06;100.00
3122;BME280;1571;52.524;14.104;2023-02-04T08:05:21;102818.53;;;1.11;100.00
3122;BME280;1571;52.524;14.104;2023-02-04T08:07:50;102817.84;;;1.29;100.00
3122;BME280;1571;52.524;14.104;2023-02-04T08:10:18;102828.38;;;1.38;100.00
3122;BME280;1571;52.524;14.104;2023-02-04T08:12:47;102825.06;;;1.59;100.00
3122;BME280;1571;52.524;14.104;2023-02-04T08:15:15;102832.09;;;1.63;100.00
3122;BME280;1571;52.524;14.104;2023-02-04T08:17:44;102839.09;;;1.64;100.00
3122;BME280;1571;52.524;14.104;2023-02-04T08:20:12;102838.25;;;1.70;100.00
3122;BME280;1571;52.524;14.104;2023-02-04T08:22:42;102836.38;;;1.57;100.00
3122;BME280;1571;52.524;14.104;2023-02-04T08:25:11;102849.41;;;1.51;100.00
3122;BME280;1571;52.524;14.104;2023-02-04T08:27:40;102859.94;;;1.55;100.00
3122;BME280;1571;52.524;14.104;2023-02-04T08:30:09;102867.50;;;1.26;100.00
3122;BME280;1571;52.524;14.104;2023-02-04T08:32:38;102880.69;;;1.37;100.00
3122;BME280;1571;52.524;14.104;2023-02-04T08:35:07;102874.22;;;0.99;100.00
3122;BME280;1571;52.524;14.104;2023-02-04T08:37:35;102875.09;;;1.00;100.00
3122;BME280;1571;52.524;14.104;2023-02-04T08:40:06;102875.25;;;1.14;100.00
3122;BME280;1571;52.524;14.104;2023-02-04T08:42:34;102877.72;;;1.01;100.00
3122;BME280;1571;52.524;14.104;2023-02-04T08:45:02;102878.59;;;1.03;100.00
3122;BME280;1571;52.524;14.104;2023-02-04T08:47:31;102890.84;;;1.08;100.00
3122;BME280;1571;52.524;14.104;2023-02-04T08:49:59;102895.59;;;1.42;100.00
3122;BME280;1571;52.524;14.104;2023-02-04T08:52:27;102889.44;;;1.39;100.00
3122;BME280;1571;52.524;14.104;2023-02-04T08:54:56;102892.28;;;1.62;100.00
3122;BME280;1571;52.524;14.104;2023-02-04T08:57:25;102887.31;;;1.93;100.00
3122;BME280;1571;52.524;14.104;2023-02-04T08:59:54;102890.91;;;2.07;100.00
3122;BME280;1571;52.524;14.104;2023-02-04T09:02:22;102889.19;;;2.09;100.00
3122;BME280;1571;52.524;14.104;2023-02-04T09:04:51;102893.50;;;2.02;100.00
3122;BME280;1571;52.524;14.104;2023-02-04T09:07:19;102898.50;;;1.73;100.00
3122;BME280;1571;52.524;14.104;2023-02-04T09:09:47;102900.28;;;1.76;100.00
3122;BME280;1571;52.524;14.104;2023-02-04T09:12:16;102897.88;;;2.02;100.00
3122;BME280;1571;52.524;14.104;2023-02-04T09:14:45;102894.53;;;2.21;100.00
3122;BME280;1571;52.524;14.104;2023-02-04T09:17:14;102909.34;;;2.16;100.00
3122;BME280;1571;52.524;14.104;2023-02-04T09:19:42;102903.94;;;1.95;99.16
3122;BME280;1571;52.524;14.104;2023-02-04T09:22:10;102910.03;;;1.94;98.36
3122;BME280;1571;52.524;14.104;2023-02-04T09:24:39;102904.69;;;1.84;98.01
3122;BME280;1571;52.524;14.104;2023-02-04T09:27:07;102920.53;;;1.94;97.61
3122;BME280;1571;52.524;14.104;2023-02-04T09:29:35;102923.88;;;1.79;97.04
3122;BME280;1571;52.524;14.104;2023-02-04T09:32:05;102929.94;;;1.75;96.39
3122;BME280;1571;52.524;14.104;2023-02-04T09:34:34;102937.88;;;1.82;96.03
3122;BME280;1571;52.524;14.104;2023-02-04T09:37:02;102933.59;;;1.95;95.76
3122;BME280;1571;52.524;14.104;2023-02-04T09:39:30;102942.50;;;2.13;95.50
3122;BME280;1571;52.524;14.104;2023-02-04T09:41:58;102946.75;;;2.00;95.50
3122;BME280;1571;52.524;14.104;2023-02-04T09:44:27;102945.03;;;2.02;94.65
3122;BME280;1571;52.524;14.104;2023-02-04T09:46:58;102962.38;;;1.87;94.21
3122;BME280;1571;52.524;14.104;2023-02-04T09:49:28;102958.06;;;1.94;94.09
3122;BME280;1571;52.524;14.104;2023-02-04T09:51:57;102958.16;;;2.03;94.11
3122;BME280;1571;52.524;14.104;2023-02-04T09:54:25;102966.88;;;2.07;93.83
3122;BME280;1571;52.524;14.104;2023-02-04T09:56:56;102969.34;;;1.87;93.78
3122;BME280;1571;52.524;14.104;2023-02-04T09:59:26;102972.00;;;1.90;94.12
3122;BME280;1571;52.524;14.104;2023-02-04T10:01:56;102979.84;;;1.90;93.93
3122;BME280;1571;52.524;14.104;2023-02-04T10:04:26;102978.03;;;1.84;94.10
3122;BME280;1571;52.524;14.104;2023-02-04T10:06:56;102986.78;;;1.83;93.89
3122;BME280;1571;52.524;14.104;2023-02-04T10:09:25;102986.66;;;1.73;93.98
3122;BME280;1571;52.524;14.104;2023-02-04T10:11:53;102984.91;;;1.73;94.23
3122;BME280;1571;52.524;14.104;2023-02-04T10:17:26;102990.25;;;1.84;94.81
3122;BME280;1571;52.524;14.104;2023-02-04T10:19:55;103007.56;;;1.68;94.85
3122;BME280;1571;52.524;14.104;2023-02-04T10:22:23;103005.03;;;1.77;94.88
3122;BME280;1571;52.524;14.104;2023-02-04T10:24:51;102995.56;;;1.88;95.05
3122;BME280;1571;52.524;14.104;2023-02-04T10:27:19;103008.69;;;1.93;94.70
3122;BME280;1571;52.524;14.104;2023-02-04T10:29:54;103012.19;;;1.95;94.33
3122;BME280;1571;52.524;14.104;2023-02-04T10:32:29;103007.88;;;2.00;94.26
3122;BME280;1571;52.524;14.104;2023-02-04T10:34:58;103005.75;;;2.59;94.16
3122;BME280;1571;52.524;14.104;2023-02-04T10:37:27;102996.94;;;2.49;93.10
3122;BME280;1571;52.524;14.104;2023-02-04T10:39:56;103009.03;;;2.30;91.86
3122;BME280;1571;52.524;14.104;2023-02-04T10:42:26;102996.97;;;2.57;91.27
3122;BME280;1571;52.524;14.104;2023-02-04T10:44:55;103007.47;;;2.54;91.37
3122;BME280;1571;52.524;14.104;2023-02-04T10:47:24;103002.94;;;2.36;91.20
3122;BME280;1571;52.524;14.104;2023-02-04T10:49:56;103007.38;;;2.43;90.58
3122;BME280;1571;52.524;14.104;2023-02-04T10:52:34;103007.41;;;2.44;89.88
3122;BME280;1571;52.524;14.104;2023-02-04T10:55:04;103019.16;;;1.93;88.98
3122;BME280;1571;52.524;14.104;2023-02-04T10:57:37;103014.97;;;2.07;87.81
3122;BME280;1571;52.524;14.104;2023-02-04T11:00:14;103010.75;;;2.26;87.56
3122;BME280;1571;52.524;14.104;2023-02-04T11:02:44;103023.84;;;2.26;86.38
3122;BME280;1571;52.524;14.104;2023-02-04T11:05:18;103022.03;;;2.16;85.70
3122;BME280;1571;52.524;14.104;2023-02-04T11:07:47;103034.16;;;2.08;85.99
3122;BME280;1571;52.524;14.104;2023-02-04T11:10:18;103028.34;;;2.41;85.56
3122;BME280;1571;52.524;14.104;2023-02-04T11:13:00;103029.28;;;2.48;84.99
3122;BME280;1571;52.524;14.104;2023-02-04T11:15:43;103032.88;;;2.59;84.47
3122;BME280;1571;52.524;14.104;2023-02-04T11:18:27;103019.69;;;2.52;82.64
3122;BME280;1571;52.524;14.104;2023-02-04T11:20:58;103026.59;;;2.39;82.02
3122;BME280;1571;52.524;14.104;2023-02-04T11:23:33;103018.47;;;2.11;80.50
3122;BME280;1571;52.524;14.104;2023-02-04T11:26:10;103024.50;;;2.01;79.34
3122;BME280;1571;52.524;14.104;2023-02-04T11:28:49;103021.88;;;2.01;78.24
3122;BME280;1571;52.524;14.104;2023-02-04T11:31:27;103025.50;;;2.15;78.23
3122;BME280;1571;52.524;14.104;2023-02-04T11:34:08;103022.31;;;2.50;78.27
3122;BME280;1571;52.524;14.104;2023-02-04T11:36:54;103012.78;;;2.67;76.73
3122;BME280;1571;52.524;14.104;2023-02-04T11:39:25;103005.09;;;2.94;75.39
3122;BME280;1571;52.524;14.104;2023-02-04T11:41:57;103012.19;;;3.11;73.80
3122;BME280;1571;52.524;14.104;2023-02-04T11:44:26;102998.94;;;2.87;72.62
3122;BME280;1571;52.524;14.104;2023-02-04T11:46:55;103004.78;;;2.46;71.38
3122;BME280;1571;52.524;14.104;2023-02-04T11:49:25;103015.28;;;2.49;72.24
3122;BME280;1571;52.524;14.104;2023-02-04T11:52:04;103023.81;;;2.25;71.06
3122;BME280;1571;52.524;14.104;2023-02-04T11:54:35;103023.69;;;2.11;70.68
3122;BME280;1571;52.524;14.104;2023-02-04T11:57:03;103023.78;;;2.20;70.75
3122;BME280;1571;52.524;14.104;2023-02-04T11:59:32;103034.25;;;2.17;70.29
3122;BME280;1571;52.524;14.104;2023-02-04T12:02:05;103026.66;;;2.49;70.37
3122;BME280;1571;52.524;14.104;2023-02-04T12:04:35;103027.47;;;2.45;69.95
3122;BME280;1571;52.524;14.104;2023-02-04T12:07:06;103032.59;;;2.25;70.99
3122;BME280;1571;52.524;14.104;2023-02-04T12:09:34;103043.06;;;2.24;70.88
3122;BME280;1571;52.524;14.104;2023-02-04T12:12:03;103042.97;;;2.15;71.56
3122;BME280;1571;52.524;14.104;2023-02-04T12:14:32;103051.00;;;2.33;72.35
3122;BME280;1571;52.524;14.104;2023-02-04T12:17:14;103062.19;;;2.15;73.40
3122;BME280;1571;52.524;14.104;2023-02-04T12:19:42;103076.94;;;2.05;74.18
3122;BME280;1571;52.524;14.104;2023-02-04T12:22:12;103069.84;;;1.94;74.00
3122;BME280;1571;52.524;14.104;2023-02-04T12:24:40;103072.38;;;1.87;73.89
3122;BME280;1571;52.524;14.104;2023-02-04T12:27:09;103075.69;;;1.71;73.32
3122;BME280;1571;52.524;14.104;2023-02-04T12:29:38;103070.47;;;1.73;71.84
3122;BME280;1571;52.524;14.104;2023-02-04T12:32:06;103067.09;;;1.84;71.18
3122;BME280;1571;52.524;14.104;2023-02-04T12:34:34;103070.72;;;1.94;70.13
3122;BME280;1571;52.524;14.104;2023-02-04T12:37:03;103059.53;;;2.11;69.39
3122;BME280;1571;52.524;14.104;2023-02-04T12:39:32;103063.19;;;2.28;69.50
3122;BME280;1571;52.524;14.104;2023-02-04T12:42:00;103052.84;;;2.46;68.91
3122;BME280;1571;52.524;14.104;2023-02-04T12:44:30;103055.72;;;2.76;68.69
3122;BME280;1571;52.524;14.104;2023-02-04T12:46:58;103053.09;;;2.79;67.94
3122;BME280;1571;52.524;14.104;2023-02-04T12:49:26;103059.13;;;2.64;68.13
3122;BME280;1571;52.524;14.104;2023-02-04T12:51:54;103074.75;;;2.50;67.67
3122;BME280;1571;52.524;14.104;2023-02-04T12:54:25;103065.09;;;2.46;67.02
3122;BME280;1571;52.524;14.104;2023-02-04T12:56:54;103060.81;;;2.59;66.43
3122;BME280;1571;52.524;14.104;2023-02-04T12:59:24;103057.50;;;2.83;66.91
3122;BME280;1571;52.524;14.104;2023-02-04T13:01:52;103064.53;;;2.84;67.08
3122;BME280;1571;52.524;14.104;2023-02-04T13:04:21;103072.38;;;2.84;66.49
3122;BME280;1571;52.524;14.104;2023-02-04T13:06:49;103067.22;;;2.96;66.62
3122;BME280;1571;52.524;14.104;2023-02-04T13:09:17;103068.09;;;2.98;66.82
3122;BME280;1571;52.524;14.104;2023-02-04T13:11:45;103083.16;;;3.30;67.67
3122;BME280;1571;52.524;14.104;2023-02-04T13:14:15;103079.53;;;3.09;67.05
3122;BME280;1571;52.524;14.104;2023-02-04T13:16:43;103097.94;;;3.14;68.02
3122;BME280;1571;52.524;14.104;2023-02-04T13:19:11;103099.41;;;2.74;67.94